sensor_id;sensor_type;location;lat;lon;timestamp;temperature;humidity
29803;DHT22;16702;50.898;4.662;2023-01-08T00:02:10;11.40;99.90
29803;DHT22;16702;50.898;4.662;2023-01-08T00:04:41;11.30;99.90
29803;DHT22;16702;50.898;4.662;2023-01-08T00:07:12;11.30;99.90
29803;DHT22;16702;50.898;4.662;2023-01-08T00:09:42;11.40;99.90
29803;DHT22;16702;50.898;4.662;2023-01-08T00:12:16;11.40;99.90
29803;DHT22;16702;50.898;4.662;2023-01-08T00:14:47;11.40;99.90
29803;DHT22;16702;50.898;4.662;2023-01-08T00:17:17;11.40;99.90
29803;DHT22;16702;50.898;4.662;2023-01-08T00:19:48;11.40;99.90
29803;DHT22;16702;50.898;4.662;2023-01-08T00:22:20;11.40;99.90
29803;DHT22;16702;50.898;4.662;2023-01-08T00:24:50;11.40;99.90
29803;DHT22;16702;50.898;4.662;2023-01-08T00:27:23;11.40;99.90
29803;DHT22;16702;50.898;4.662;2023-01-08T00:29:56;11.40;99.90
29803;DHT22;16702;50.898;4.662;2023-01-08T00:32:27;11.40;99.90
29803;DHT22;16702;50.898;4.662;2023-01-08T00:35:00;11.40;99.90
29803;DHT22;16702;50.898;4.662;2023-01-08T00:37:33;11.40;99.90
29803;DHT22;16702;50.898;4.662;2023-01-08T00:40:05;11.50;99.90
29803;DHT22;16702;50.898;4.662;2023-01-08T00:42:39;11.40;99.90
29803;DHT22;16702;50.898;4.662;2023-01-08T00:45:12;11.40;99.90
29803;DHT22;16702;50.898;4.662;2023-01-08T00:47:42;11.50;99.90
29803;DHT22;16702;50.898;4.662;2023-01-08T00:50:13;11.40;99.90
29803;DHT22;16702;50.898;4.662;2023-01-08T00:52:43;11.40;99.90
29803;DHT22;16702;50.898;4.662;2023-01-08T00:55:14;11.30;99.90
29803;DHT22;16702;50.898;4.662;2023-01-08T00:57:47;11.20;99.90
29803;DHT22;16702;50.898;4.662;2023-01-08T01:00:18;11.20;99.90
29803;DHT22;16702;50.898;4.662;2023-01-08T01:02:48;11.10;99.90
29803;DHT22;16702;50.898;4.662;2023-01-08T01:05:19;11.10;99.90
29803;DHT22;16702;50.898;4.662;2023-01-08T01:07:50;11.10;99.90
29803;DHT22;16702;50.898;4.662;2023-01-08T01:10:23;11.10;99.90
29803;DHT22;16702;50.898;4.662;2023-01-08T01:12:56;11.00;99.90
29803;DHT22;16702;50.898;4.662;2023-01-08T01:15:28;11.00;99.90
29803;DHT22;16702;50.898;4.662;2023-01-08T01:17:58;11.00;99.90
29803;DHT22;16702;50.898;4.662;2023-01-08T01:20:28;10.90;99.90
29803;DHT22;16702;50.898;4.662;2023-01-08T01:23:03;10.70;99.90
29803;DHT22;16702;50.898;4.662;2023-01-08T01:25:36;10.70;99.90
29803;DHT22;16702;50.898;4.662;2023-01-08T01:28:14;10.60;99.90
29803;DHT22;16702;50.898;4.662;2023-01-08T01:30:52;10.60;99.90
29803;DHT22;16702;50.898;4.662;2023-01-08T01:33:24;10.60;99.90
29803;DHT22;16702;50.898;4.662;2023-01-08T01:36:01;10.50;99.90
29803;DHT22;16702;50.898;4.662;2023-01-08T01:38:32;10.60;99.90
29803;DHT22;16702;50.898;4.662;2023-01-08T01:41:03;10.60;99.90
29803;DHT22;16702;50.898;4.662;2023-01-08T01:43:38;10.60;99.90
29803;DHT22;16702;50.898;4.662;2023-01-08T01:46:18;10.50;99.90
29803;DHT22;16702;50.898;4.662;2023-01-08T01:48:55;10.50;99.90
29803;DHT22;16702;50.898;4.662;2023-01-08T01:51:30;10.50;99.90
29803;DHT22;16702;50.898;4.662;2023-01-08T01:54:03;10.50;99.90
29803;DHT22;16702;50.898;4.662;2023-01-08T01:56:34;10.50;99.90
29803;DHT22;16702;50.898;4.662;2023-01-08T01:59:07;10.30;99.90
29803;DHT22;16702;50.898;4.662;2023-01-08T02:01:37;10.40;99.90
29803;DHT22;16702;50.898;4.662;2023-01-08T02:04:11;10.40;99.90
29803;DHT22;16702;50.898;4.662;2023-01-08T02:06:48;10.40;99.90
29803;DHT22;16702;50.898;4.662;2023-01-08T02:09:25;10.40;99.90
29803;DHT22;16702;50.898;4.662;2023-01-08T02:12:03;10.40;99.90
29803;DHT22;16702;50.898;4.662;2023-01-08T02:15:06;10.40;99.90
29803;DHT22;16702;50.898;4.662;2023-01-08T02:17:44;10.40;99.90
29803;DHT22;16702;50.898;4.662;2023-01-08T02:20:22;10.40;99.90
29803;DHT22;16702;50.898;4.662;2023-01-08T02:23:09;10.40;99.90
29803;DHT22;16702;50.898;4.662;2023-01-08T02:28:56;10.50;99.90
29803;DHT22;16702;50.898;4.662;2023-01-08T02:31:31;10.50;99.90
29803;DHT22;16702;50.898;4.662;2023-01-08T02:34:05;10.40;99.90
29803;DHT22;16702;50.898;4.662;2023-01-08T02:36:37;10.50;99.90
29803;DHT22;16702;50.898;4.662;2023-01-08T02:39:24;10.50;99.90
29803;DHT22;16702;50.898;4.662;2023-01-08T02:42:05;10.50;99.90
29803;DHT22;16702;50.898;4.662;2023-01-08T02:44:50;10.50;99.90
29803;DHT22;16702;50.898;4.662;2023-01-08T02:47:29;10.50;99.90
29803;DHT22;16702;50.898;4.662;2023-01-08T02:50:07;10.50;99.90
29803;DHT22;16702;50.898;4.662;2023-01-08T02:52:46;10.50;99.90
29803;DHT22;16702;50.898;4.662;2023-01-08T02:55:21;10.50;99.90
29803;DHT22;16702;50.898;4.662;2023-01-08T02:57:55;10.50;99.90
29803;DHT22;16702;50.898;4.662;2023-01-08T03:00:30;10.60;99.90
29803;DHT22;16702;50.898;4.662;2023-01-08T03:03:06;10.60;99.90
29803;DHT22;16702;50.898;4.662;2023-01-08T03:05:40;10.60;99.90
29803;DHT22;16702;50.898;4.662;2023-01-08T03:08:11;10.50;99.90
29803;DHT22;16702;50.898;4.662;2023-01-08T03:10:44;10.60;99.90
29803;DHT22;16702;50.898;4.662;2023-01-08T03:13:25;10.60;99.90
29803;DHT22;16702;50.898;4.662;2023-01-08T03:16:04;10.40;99.90
29803;DHT22;16702;50.898;4.662;2023-01-08T03:18:44;10.40;99.90
29803;DHT22;16702;50.898;4.662;2023-01-08T03:21:20;10.40;99.90
29803;DHT22;16702;50.898;4.662;2023-01-08T03:23:51;10.40;99.90
29803;DHT22;16702;50.898;4.662;2023-01-08T03:26:24;10.40;99.90
29803;DHT22;16702;50.898;4.662;2023-01-08T03:28:58;10.40;99.90
29803;DHT22;16702;50.898;4.662;2023-01-08T03:31:31;10.40;99.90
29803;DHT22;16702;50.898;4.662;2023-01-08T03:34:03;10.40;99.90
29803;DHT22;16702;50.898;4.662;2023-01-08T03:36:36;10.40;99.90
29803;DHT22;16702;50.898;4.662;2023-01-08T03:39:14;10.40;99.90
29803;DHT22;16702;50.898;4.662;2023-01-08T03:41:47;10.30;99.90
29803;DHT22;16702;50.898;4.662;2023-01-08T03:44:21;10.30;99.90
29803;DHT22;16702;50.898;4.662;2023-01-08T03:46:53;10.40;99.90
29803;DHT22;16702;50.898;4.662;2023-01-08T03:49:26;10.30;99.90
29803;DHT22;16702;50.898;4.662;2023-01-08T03:51:59;10.30;99.90
29803;DHT22;16702;50.898;4.662;2023-01-08T03:54:31;10.30;99.90
29803;DHT22;16702;50.898;4.662;2023-01-08T03:57:02;10.30;99.90
29803;DHT22;16702;50.898;4.662;2023-01-08T03:59:38;10.20;99.90
29803;DHT22;16702;50.898;4.662;2023-01-08T04:02:14;10.30;99.90
29803;DHT22;16702;50.898;4.662;2023-01-08T04:04:45;10.20;99.90
29803;DHT22;16702;50.898;4.662;2023-01-08T04:07:16;10.20;99.90
29803;DHT22;16702;50.898;4.662;2023-01-08T04:09:46;10.20;99.90
29803;DHT22;16702;50.898;4.662;2023-01-08T04:12:17;10.20;99.90
29803;DHT22;16702;50.898;4.662;2023-01-08T04:14:49;10.10;99.90
29803;DHT22;16702;50.898;4.662;2023-01-08T04:17:20;10.20;99.90
29803;DHT22;16702;50.898;4.662;2023-01-08T04:19:50;10.10;99.90
29803;DHT22;16702;50.898;4.662;2023-01-08T04:22:21;10.10;99.90
29803;DHT22;16702;50.898;4.662;2023-01-08T04:24:52;10.10;99.90
29803;DHT22;16702;50.898;4.662;2023-01-08T04:27:23;10.10;99.90
29803;DHT22;16702;50.898;4.662;2023-01-08T04:29:55;10.10;99.90
29803;DHT22;16702;50.898;4.662;2023-01-08T04:32:28;10.00;99.90
29803;DHT22;16702;50.898;4.662;2023-01-08T04:35:00;10.00;99.90
29803;DHT22;16702;50.898;4.662;2023-01-08T04:37:31;10.10;99.90
29803;DHT22;16702;50.898;4.662;2023-01-08T04:40:01;10.10;99.90
29803;DHT22;16702;50.898;4.662;2023-01-08T04:42:34;10.10;99.90
29803;DHT22;16702;50.898;4.662;2023-01-08T04:45:08;10.10;99.90
29803;DHT22;16702;50.898;4.662;2023-01-08T04:47:39;10.10;99.90
29803;DHT22;16702;50.898;4.662;2023-01-08T04:50:09;10.00;99.90
29803;DHT22;16702;50.898;4.662;2023-01-08T04:52:40;10.00;99.90
29803;DHT22;16702;50.898;4.662;2023-01-08T04:55:10;10.00;99.90
29803;DHT22;16702;50.898;4.662;2023-01-08T04:57:40;10.00;99.90
29803;DHT22;16702;50.898;4.662;2023-01-08T05:00:15;10.00;99.90
29803;DHT22;16702;50.898;4.662;2023-01-08T05:02:45;9.90;99.90
29803;DHT22;16702;50.898;4.662;2023-01-08T05:05:17;9.90;99.90
29803;DHT22;16702;50.898;4.662;2023-01-08T05:07:48;9.90;99.90
29803;DHT22;16702;50.898;4.662;2023-01-08T05:10:18;9.90;99.90
29803;DHT22;16702;50.898;4.662;2023-01-08T05:12:48;9.80;99.90
29803;DHT22;16702;50.898;4.662;2023-01-08T05:15:21;9.80;99.90
29803;DHT22;16702;50.898;4.662;2023-01-08T05:17:58;9.80;99.90
29803;DHT22;16702;50.898;4.662;2023-01-08T05:20:28;9.80;99.90
29803;DHT22;16702;50.898;4.662;2023-01-08T05:23:01;9.80;99.90
29803;DHT22;16702;50.898;4.662;2023-01-08T05:25:32;9.80;99.90
29803;DHT22;16702;50.898;4.662;2023-01-08T05:28:03;9.70;99.90
29803;DHT22;16702;50.898;4.662;2023-01-08T05:30:38;9.70;99.90
29803;DHT22;16702;50.898;4.662;2023-01-08T05:33:08;9.70;99.90
29803;DHT22;16702;50.898;4.662;2023-01-08T05:35:38;9.70;99.90
29803;DHT22;16702;50.898;4.662;2023-01-08T05:38:09;9.70;99.90
29803;DHT22;16702;50.898;4.662;2023-01-08T05:40:40;9.60;99.90
29803;DHT22;16702;50.898;4.662;2023-01-08T05:43:10;9.60;99.90
29803;DHT22;16702;50.898;4.662;2023-01-08T05:45:43;9.60;99.90
29803;DHT22;16702;50.898;4.662;2023-01-08T05:48:13;9.60;99.90
29803;DHT22;16702;50.898;4.662;2023-01-08T05:50:44;9.50;99.90
29803;DHT22;16702;50.898;4.662;2023-01-08T05:53:17;9.60;99.90
29803;DHT22;16702;50.898;4.662;2023-01-08T05:55:47;9.50;99.90
29803;DHT22;16702;50.898;4.662;2023-01-08T05:58:18;9.50;99.90
29803;DHT22;16702;50.898;4.662;2023-01-08T06:00:52;9.50;99.90
29803;DHT22;16702;50.898;4.662;2023-01-08T06:03:22;9.40;99.90
29803;DHT22;16702;50.898;4.662;2023-01-08T06:05:56;9.40;99.90
29803;DHT22;16702;50.898;4.662;2023-01-08T06:08:27;9.40;99.90
29803;DHT22;16702;50.898;4.662;2023-01-08T06:11:03;9.40;99.90
29803;DHT22;16702;50.898;4.662;2023-01-08T06:13:35;9.40;99.90
29803;DHT22;16702;50.898;4.662;2023-01-08T06:16:08;9.40;99.90
29803;DHT22;16702;50.898;4.662;2023-01-08T06:18:42;9.40;99.90
29803;DHT22;16702;50.898;4.662;2023-01-08T06:21:13;9.40;99.90
29803;DHT22;16702;50.898;4.662;2023-01-08T06:23:46;9.40;99.90
29803;DHT22;16702;50.898;4.662;2023-01-08T06:26:19;9.40;99.90
29803;DHT22;16702;50.898;4.662;2023-01-08T06:28:49;9.30;99.90
29803;DHT22;16702;50.898;4.662;2023-01-08T06:31:24;9.30;99.90
29803;DHT22;16702;50.898;4.662;2023-01-08T06:33:55;9.30;99.90
29803;DHT22;16702;50.898;4.662;2023-01-08T06:36:25;9.30;99.90
29803;DHT22;16702;50.898;4.662;2023-01-08T06:38:55;9.30;99.90
29803;DHT22;16702;50.898;4.662;2023-01-08T06:41:26;9.30;99.90
29803;DHT22;16702;50.898;4.662;2023-01-08T06:44:00;9.30;99.90
29803;DHT22;16702;50.898;4.662;2023-01-08T06:46:33;9.30;99.90
29803;DHT22;16702;50.898;4.662;2023-01-08T06:49:07;9.30;99.90
29803;DHT22;16702;50.898;4.662;2023-01-08T06:51:37;9.20;99.90
29803;DHT22;16702;50.898;4.662;2023-01-08T06:54:07;9.30;99.90
29803;DHT22;16702;50.898;4.662;2023-01-08T06:56:39;9.20;99.90
29803;DHT22;16702;50.898;4.662;2023-01-08T06:59:22;9.30;99.90
29803;DHT22;16702;50.898;4.662;2023-01-08T07:01:55;9.20;99.90
29803;DHT22;16702;50.898;4.662;2023-01-08T07:04:26;9.20;99.90
29803;DHT22;16702;50.898;4.662;2023-01-08T07:06:56;9.20;99.90
29803;DHT22;16702;50.898;4.662;2023-01-08T07:09:26;9.20;99.90
29803;DHT22;16702;50.898;4.662;2023-01-08T07:11:57;9.20;99.90
29803;DHT22;16702;50.898;4.662;2023-01-08T07:14:27;9.20;99.90
29803;DHT22;16702;50.898;4.662;2023-01-08T07:17:00;9.20;99.90
29803;DHT22;16702;50.898;4.662;2023-01-08T07:19:30;9.10;99.90
29803;DHT22;16702;50.898;4.662;2023-01-08T07:22:01;9.20;99.90
29803;DHT22;16702;50.898;4.662;2023-01-08T07:24:31;9.20;99.90
29803;DHT22;16702;50.898;4.662;2023-01-08T07:27:03;9.20;99.90
29803;DHT22;16702;50.898;4.662;2023-01-08T07:29:33;9.20;99.90
29803;DHT22;16702;50.898;4.662;2023-01-08T07:32:07;9.20;99.90
29803;DHT22;16702;50.898;4.662;2023-01-08T07:34:37;9.20;99.90
29803;DHT22;16702;50.898;4.662;2023-01-08T07:37:07;9.20;99.90
29803;DHT22;16702;50.898;4.662;2023-01-08T07:39:39;9.20;99.90
29803;DHT22;16702;50.898;4.662;2023-01-08T07:42:11;9.20;99.90
29803;DHT22;16702;50.898;4.662;2023-01-08T07:44:44;9.20;99.90
29803;DHT22;16702;50.898;4.662;2023-01-08T07:47:17;9.20;99.90
29803;DHT22;16702;50.898;4.662;2023-01-08T07:49:47;9.20;99.90
29803;DHT22;16702;50.898;4.662;2023-01-08T07:52:19;9.20;99.90
29803;DHT22;16702;50.898;4.662;2023-01-08T07:54:49;9.20;99.90
29803;DHT22;16702;50.898;4.662;2023-01-08T07:57:22;9.20;99.90
29803;DHT22;16702;50.898;4.662;2023-01-08T07:59:54;9.20;99.90
29803;DHT22;16702;50.898;4.662;2023-01-08T08:02:27;9.20;99.90
29803;DHT22;16702;50.898;4.662;2023-01-08T08:04:58;9.20;99.90
29803;DHT22;16702;50.898;4.662;2023-01-08T08:07:29;9.20;99.90
29803;DHT22;16702;50.898;4.662;2023-01-08T08:10:01;9.20;99.90
29803;DHT22;16702;50.898;4.662;2023-01-08T08:12:31;9.20;99.90
29803;DHT22;16702;50.898;4.662;2023-01-08T08:15:02;9.20;99.90
29803;DHT22;16702;50.898;4.662;2023-01-08T08:17:38;9.20;99.90
29803;DHT22;16702;50.898;4.662;2023-01-08T08:20:10;9.20;99.90
29803;DHT22;16702;50.898;4.662;2023-01-08T08:22:43;9.20;99.90
29803;DHT22;16702;50.898;4.662;2023-01-08T08:25:14;9.20;99.90
29803;DHT22;16702;50.898;4.662;2023-01-08T08:27:44;9.20;99.90
29803;DHT22;16702;50.898;4.662;2023-01-08T08:30:15;9.20;99.90
29803;DHT22;16702;50.898;4.662;2023-01-08T08:32:48;9.20;99.90
29803;DHT22;16702;50.898;4.662;2023-01-08T08:35:18;9.30;99.90
29803;DHT22;16702;50.898;4.662;2023-01-08T08:37:49;9.30;99.90
29803;DHT22;16702;50.898;4.662;2023-01-08T08:40:19;9.30;99.90
29803;DHT22;16702;50.898;4.662;2023-01-08T08:42:55;9.30;99.90
29803;DHT22;16702;50.898;4.662;2023-01-08T08:45:25;9.30;99.90
29803;DHT22;16702;50.898;4.662;2023-01-08T08:47:59;9.40;99.90
29803;DHT22;16702;50.898;4.662;2023-01-08T08:50:31;9.30;99.90
29803;DHT22;16702;50.898;4.662;2023-01-08T08:53:04;9.30;99.90
29803;DHT22;16702;50.898;4.662;2023-01-08T08:55:35;9.30;99.90
29803;DHT22;16702;50.898;4.662;2023-01-08T08:58:07;9.40;99.90
29803;DHT22;16702;50.898;4.662;2023-01-08T09:00:42;9.40;99.90
29803;DHT22;16702;50.898;4.662;2023-01-08T09:03:15;9.40;99.90
29803;DHT22;16702;50.898;4.662;2023-01-08T09:05:46;9.40;99.90
29803;DHT22;16702;50.898;4.662;2023-01-08T09:08:16;9.40;99.90
29803;DHT22;16702;50.898;4.662;2023-01-08T09:10:47;9.40;99.90
29803;DHT22;16702;50.898;4.662;2023-01-08T09:13:17;9.40;99.90
29803;DHT22;16702;50.898;4.662;2023-01-08T09:15:47;9.40;99.90
29803;DHT22;16702;50.898;4.662;2023-01-08T09:18:20;9.40;99.90
29803;DHT22;16702;50.898;4.662;2023-01-08T09:20:51;9.40;99.90
29803;DHT22;16702;50.898;4.662;2023-01-08T09:23:21;9.40;99.90
29803;DHT22;16702;50.898;4.662;2023-01-08T09:25:58;9.30;99.90
29803;DHT22;16702;50.898;4.662;2023-01-08T09:28:29;9.40;99.90
29803;DHT22;16702;50.898;4.662;2023-01-08T09:31:00;9.40;99.90
29803;DHT22;16702;50.898;4.662;2023-01-08T09:33:34;9.40;99.90
29803;DHT22;16702;50.898;4.662;2023-01-08T09:36:08;9.40;99.90
29803;DHT22;16702;50.898;4.662;2023-01-08T09:38:40;9.40;99.90
29803;DHT22;16702;50.898;4.662;2023-01-08T09:41:16;9.40;99.90
29803;DHT22;16702;50.898;4.662;2023-01-08T09:43:50;9.40;99.90
29803;DHT22;16702;50.898;4.662;2023-01-08T09:46:25;9.40;99.90
29803;DHT22;16702;50.898;4.662;2023-01-08T09:48:59;9.40;99.90
29803;DHT22;16702;50.898;4.662;2023-01-08T09:51:34;9.40;99.90
29803;DHT22;16702;50.898;4.662;2023-01-08T09:54:05;9.40;99.90
29803;DHT22;16702;50.898;4.662;2023-01-08T09:56:36;9.40;99.90
29803;DHT22;16702;50.898;4.662;2023-01-08T09:59:11;9.40;99.90
29803;DHT22;16702;50.898;4.662;2023-01-08T10:01:42;9.40;99.90
29803;DHT22;16702;50.898;4.662;2023-01-08T10:04:18;9.40;99.90
29803;DHT22;16702;50.898;4.662;2023-01-08T10:06:53;9.50;99.90
29803;DHT22;16702;50.898;4.662;2023-01-08T10:09:26;9.50;99.90
29803;DHT22;16702;50.898;4.662;2023-01-08T10:11:59;9.50;99.90
29803;DHT22;16702;50.898;4.662;2023-01-08T10:14:35;9.50;99.90
29803;DHT22;16702;50.898;4.662;2023-01-08T10:17:12;9.50;99.90
29803;DHT22;16702;50.898;4.662;2023-01-08T10:19:47;9.50;99.90
29803;DHT22;16702;50.898;4.662;2023-01-08T10:22:20;9.60;99.90
29803;DHT22;16702;50.898;4.662;2023-01-08T10:24:51;9.60;99.90
29803;DHT22;16702;50.898;4.662;2023-01-08T10:27:22;9.60;99.90
29803;DHT22;16702;50.898;4.662;2023-01-08T10:30:04;9.60;99.90
29803;DHT22;16702;50.898;4.662;2023-01-08T10:32:36;9.60;99.90
29803;DHT22;16702;50.898;4.662;2023-01-08T10:35:16;9.60;99.90
29803;DHT22;16702;50.898;4.662;2023-01-08T10:37:48;9.60;99.90
29803;DHT22;16702;50.898;4.662;2023-01-08T10:40:25;9.60;99.90
29803;DHT22;16702;50.898;4.662;2023-01-08T10:43:11;9.70;99.90
29803;DHT22;16702;50.898;4.662;2023-01-08T10:45:43;9.70;99.90
29803;DHT22;16702;50.898;4.662;2023-01-08T10:48:26;9.70;99.90
29803;DHT22;16702;50.898;4.662;2023-01-08T10:51:13;9.70;99.90
29803;DHT22;16702;50.898;4.662;2023-01-08T10:53:44;9.80;99.90
29803;DHT22;16702;50.898;4.662;2023-01-08T10:56:20;9.80;99.90
29803;DHT22;16702;50.898;4.662;2023-01-08T10:58:54;9.80;99.90
29803;DHT22;16702;50.898;4.662;2023-01-08T11:01:29;9.80;99.90
29803;DHT22;16702;50.898;4.662;2023-01-08T11:04:02;9.80;99.90
29803;DHT22;16702;50.898;4.662;2023-01-08T11:06:40;9.80;99.90
29803;DHT22;16702;50.898;4.662;2023-01-08T11:09:18;9.90;99.90
29803;DHT22;16702;50.898;4.662;2023-01-08T11:11:51;10.00;99.90
29803;DHT22;16702;50.898;4.662;2023-01-08T11:14:24;10.00;99.90
29803;DHT22;16702;50.898;4.662;2023-01-08T11:16:58;10.00;99.90
29803;DHT22;16702;50.898;4.662;2023-01-08T11:19:30;10.00;99.90
29803;DHT22;16702;50.898;4.662;2023-01-08T11:22:05;10.00;99.90
29803;DHT22;16702;50.898;4.662;2023-01-08T11:24:48;10.00;99.90
29803;DHT22;16702;50.898;4.662;2023-01-08T11:27:23;10.10;99.90
29803;DHT22;16702;50.898;4.662;2023-01-08T11:29:59;10.00;99.90
29803;DHT22;16702;50.898;4.662;2023-01-08T11:32:41;10.10;99.90
29803;DHT22;16702;50.898;4.662;2023-01-08T11:35:17;10.10;99.90
29803;DHT22;16702;50.898;4.662;2023-01-08T11:37:53;10.10;99.90
29803;DHT22;16702;50.898;4.662;2023-01-08T11:40:32;10.10;99.90
29803;DHT22;16702;50.898;4.662;2023-01-08T11:43:21;10.20;99.90
29803;DHT22;16702;50.898;4.662;2023-01-08T11:52:01;10.10;99.90
29803;DHT22;16702;50.898;4.662;2023-01-08T11:54:51;10.20;99.90
29803;DHT22;16702;50.898;4.662;2023-01-08T11:57:32;10.30;99.90
29803;DHT22;16702;50.898;4.662;2023-01-08T12:00:27;10.20;99.90
29803;DHT22;16702;50.898;4.662;2023-01-08T12:03:01;10.20;99.90
29803;DHT22;16702;50.898;4.662;2023-01-08T12:05:35;10.20;99.90
29803;DHT22;16702;50.898;4.662;2023-01-08T12:08:14;10.30;99.90
29803;DHT22;16702;50.898;4.662;2023-01-08T12:11:00;10.40;99.90
29803;DHT22;16702;50.898;4.662;2023-01-08T12:13:53;10.40;99.90
29803;DHT22;16702;50.898;4.662;2023-01-08T12:16:37;10.40;99.90
29803;DHT22;16702;50.898;4.662;2023-01-08T12:19:25;10.30;99.90
29803;DHT22;16702;50.898;4.662;2023-01-08T12:22:09;10.40;99.90
29803;DHT22;16702;50.898;4.662;2023-01-08T12:24:58;10.40;99.90
29803;DHT22;16702;50.898;4.662;2023-01-08T12:27:42;10.40;99.90
29803;DHT22;16702;50.898;4.662;2023-01-08T12:30:30;10.40;99.90
29803;DHT22;16702;50.898;4.662;2023-01-08T12:33:07;10.30;99.90
29803;DHT22;16702;50.898;4.662;2023-01-08T12:35:44;10.40;99.90
29803;DHT22;16702;50.898;4.662;2023-01-08T12:38:25;10.40;99.90
29803;DHT22;16702;50.898;4.662;2023-01-08T12:40:59;10.40;99.90
29803;DHT22;16702;50.898;4.662;2023-01-08T12:43:43;10.40;99.90
29803;DHT22;16702;50.898;4.662;2023-01-08T12:46:14;10.40;99.90
29803;DHT22;16702;50.898;4.662;2023-01-08T12:48:47;10.40;99.90
29803;DHT22;16702;50.898;4.662;2023-01-08T12:51:25;10.50;99.90
29803;DHT22;16702;50.898;4.662;2023-01-08T12:54:05;10.50;99.90
29803;DHT22;16702;50.898;4.662;2023-01-08T12:56:44;10.60;99.90
29803;DHT22;16702;50.898;4.662;2023-01-08T12:59:26;10.50;99.90
29803;DHT22;16702;50.898;4.662;2023-01-08T13:02:05;10.50;99.90
29803;DHT22;16702;50.898;4.662;2023-01-08T13:04:40;10.50;99.90
29803;DHT22;16702;50.898;4.662;2023-01-08T13:07:17;10.50;99.90
29803;DHT22;16702;50.898;4.662;2023-01-08T13:09:54;10.60;99.90
29803;DHT22;16702;50.898;4.662;2023-01-08T13:12:32;10.60;99.90
29803;DHT22;16702;50.898;4.662;2023-01-08T13:15:07;10.50;99.90
29803;DHT22;16702;50.898;4.662;2023-01-08T13:17:38;10.50;99.90
29803;DHT22;16702;50.898;4.662;2023-01-08T13:20:20;10.50;99.90
29803;DHT22;16702;50.898;4.662;2023-01-08T13:22:56;10.60;99.90
29803;DHT22;16702;50.898;4.662;2023-01-08T13:25:33;10.70;99.90
29803;DHT22;16702;50.898;4.662;2023-01-08T13:28:23;10.70;99.90
29803;DHT22;16702;50.898;4.662;2023-01-08T13:31:07;10.80;99.90
29803;DHT22;16702;50.898;4.662;2023-01-08T13:33:39;10.90;99.90
29803;DHT22;16702;50.898;4.662;2023-01-08T13:36:28;10.90;99.90
29803;DHT22;16702;50.898;4.662;2023-01-08T13:39:05;10.90;99.90
29803;DHT22;16702;50.898;4.662;2023-01-08T13:41:36;10.80;99.90
29803;DHT22;16702;50.898;4.662;2023-01-08T13:44:20;10.80;99.90
29803;DHT22;16702;50.898;4.662;2023-01-08T13:46:56;10.80;99.90
29803;DHT22;16702;50.898;4.662;2023-01-08T13:49:33;10.70;99.90
29803;DHT22;16702;50.898;4.662;2023-01-08T13:52:04;10.70;99.90
29803;DHT22;16702;50.898;4.662;2023-01-08T13:54:37;10.80;99.90
29803;DHT22;16702;50.898;4.662;2023-01-08T13:57:13;10.80;99.90
29803;DHT22;16702;50.898;4.662;2023-01-08T13:59:48;10.80;99.90
29803;DHT22;16702;50.898;4.662;2023-01-08T14:02:27;10.90;99.90
29803;DHT22;16702;50.898;4.662;2023-01-08T14:05:00;10.90;99.90
29803;DHT22;16702;50.898;4.662;2023-01-08T14:07:31;10.70;99.90
29803;DHT22;16702;50.898;4.662;2023-01-08T14:10:06;10.90;99.90
29803;DHT22;16702;50.898;4.662;2023-01-08T14:12:39;10.90;99.90
29803;DHT22;16702;50.898;4.662;2023-01-08T14:15:21;10.80;99.90
29803;DHT22;16702;50.898;4.662;2023-01-08T14:17:55;10.80;99.90
29803;DHT22;16702;50.898;4.662;2023-01-08T14:20:31;10.70;99.90
29803;DHT22;16702;50.898;4.662;2023-01-08T14:23:08;10.60;99.90
29803;DHT22;16702;50.898;4.662;2023-01-08T14:25:40;10.70;99.90
29803;DHT22;16702;50.898;4.662;2023-01-08T14:28:16;10.60;99.90
29803;DHT22;16702;50.898;4.662;2023-01-08T14:30:47;10.60;99.90
29803;DHT22;16702;50.898;4.662;2023-01-08T14:33:23;10.70;99.90
29803;DHT22;16702;50.898;4.662;2023-01-08T14:35:55;10.70;99.90
29803;DHT22;16702;50.898;4.662;2023-01-08T14:38:26;10.80;99.90
29803;DHT22;16702;50.898;4.662;2023-01-08T14:41:01;10.60;99.90
29803;DHT22;16702;50.898;4.662;2023-01-08T14:43:38;10.70;99.90
29803;DHT22;16702;50.898;4.662;2023-01-08T14:46:16;10.80;99.90
29803;DHT22;16702;50.898;4.662;2023-01-08T14:48:52;10.70;99.90
29803;DHT22;16702;50.898;4.662;2023-01-08T14:51:26;10.70;99.90
29803;DHT22;16702;50.898;4.662;2023-01-08T14:54:04;10.70;99.90
29803;DHT22;16702;50.898;4.662;2023-01-08T14:56:36;10.60;99.90
29803;DHT22;16702;50.898;4.662;2023-01-08T14:59:08;10.60;99.90
29803;DHT22;16702;50.898;4.662;2023-01-08T15:01:39;10.60;99.90
29803;DHT22;16702;50.898;4.662;2023-01-08T15:04:18;10.60;99.90
29803;DHT22;16702;50.898;4.662;2023-01-08T15:06:50;10.50;99.90
29803;DHT22;16702;50.898;4.662;2023-01-08T15:09:22;10.50;99.90
29803;DHT22;16702;50.898;4.662;2023-01-08T15:11:54;10.50;99.90
29803;DHT22;16702;50.898;4.662;2023-01-08T15:14:27;10.50;99.90
29803;DHT22;16702;50.898;4.662;2023-01-08T15:16:59;10.50;99.90
29803;DHT22;16702;50.898;4.662;2023-01-08T15:19:44;10.40;99.90
29803;DHT22;16702;50.898;4.662;2023-01-08T15:22:18;10.40;99.90
29803;DHT22;16702;50.898;4.662;2023-01-08T15:24:55;10.40;99.90
29803;DHT22;16702;50.898;4.662;2023-01-08T15:27:26;10.50;99.90
29803;DHT22;16702;50.898;4.662;2023-01-08T15:29:58;10.50;99.90
29803;DHT22;16702;50.898;4.662;2023-01-08T15:32:31;10.50;99.90
29803;DHT22;16702;50.898;4.662;2023-01-08T15:35:12;10.50;99.90
29803;DHT22;16702;50.898;4.662;2023-01-08T15:37:43;10.50;99.90
29803;DHT22;16702;50.898;4.662;2023-01-08T15:40:14;10.40;99.90
29803;DHT22;16702;50.898;4.662;2023-01-08T15:42:44;10.40;99.90
29803;DHT22;16702;50.898;4.662;2023-01-08T15:45:28;10.50;99.90
29803;DHT22;16702;50.898;4.662;2023-01-08T15:48:00;10.50;99.90
29803;DHT22;16702;50.898;4.662;2023-01-08T15:50:39;10.50;99.90
29803;DHT22;16702;50.898;4.662;2023-01-08T15:53:16;10.40;99.90
29803;DHT22;16702;50.898;4.662;2023-01-08T15:55:49;10.50;99.90
29803;DHT22;16702;50.898;4.662;2023-01-08T15:58:20;10.50;99.90
29803;DHT22;16702;50.898;4.662;2023-01-08T16:00:50;10.50;99.90
29803;DHT22;16702;50.898;4.662;2023-01-08T16:03:21;10.40;99.90
29803;DHT22;16702;50.898;4.662;2023-01-08T16:05:55;10.40;99.90
29803;DHT22;16702;50.898;4.662;2023-01-08T16:08:26;10.40;99.90
29803;DHT22;16702;50.898;4.662;2023-01-08T16:10:56;10.40;99.90
29803;DHT22;16702;50.898;4.662;2023-01-08T16:13:27;10.40;99.90
29803;DHT22;16702;50.898;4.662;2023-01-08T16:15:57;10.40;99.90
29803;DHT22;16702;50.898;4.662;2023-01-08T16:18:28;10.40;99.90
29803;DHT22;16702;50.898;4.662;2023-01-08T16:21:01;10.40;99.90
29803;DHT22;16702;50.898;4.662;2023-01-08T16:23:32;10.40;99.90
29803;DHT22;16702;50.898;4.662;2023-01-08T16:26:07;10.40;99.90
29803;DHT22;16702;50.898;4.662;2023-01-08T16:28:39;10.40;99.90
29803;DHT22;16702;50.898;4.662;2023-01-08T16:31:10;10.30;99.90